CheckWX is a tool to help pilots better visualize weather data.  It is not intended as a substitute for an official pre-flight weather briefing.

13:34:41 UTC

KLUG METAR
Ellington Airport
Lewisburg, Tennessee, USA
Current

20 mins ago

KLUG 081315Z AUTO 00000KT 10SM FEW048 OVC055 05/04 A3020 RMK A01
Observed
Dec-8 @ 13:15 UTC
Visibility
10 SM
Flight Rules
VFR
Cloud Levels
  • Few at 4,800' AGL
  • Overcast at 5,500' AGL
Temperature
C / 41°F
Dewpoint
C / 39°F
Humidity
93%
Altimeter
30.2" Hg
Pressure
1022.72 hPa
Previous

40 mins ago

KLUG 081255Z AUTO 00000KT 9SM OVC050 03/03 A3021 RMK A01
Observed
Dec-8 @ 12:55 UTC
Visibility
9 SM
Flight Rules
VFR
Cloud Levels
  • Overcast at 5,000' AGL
Temperature
C / 37°F
Dewpoint
C / 37°F
Humidity
100%
Altimeter
30.21" Hg
Pressure
1023.02 hPa
Previous

60 mins ago

KLUG 081235Z AUTO 00000KT 9SM OVC050 02/02 A3020 RMK A01
Observed
Dec-8 @ 12:35 UTC
Visibility
9 SM
Flight Rules
VFR
Cloud Levels
  • Overcast at 5,000' AGL
Temperature
C / 36°F
Dewpoint
C / 36°F
Humidity
100%
Altimeter
30.2" Hg
Pressure
1022.72 hPa